createdAt,value
2023-02-09T00:02:17.821Z,69.94
2023-02-09T00:07:40.304Z,70.04
2023-02-09T00:13:20.894Z,69.92
2023-02-09T00:18:42.924Z,68.86
2023-02-09T00:24:07.404Z,68.14
2023-02-09T00:29:29.094Z,68.04
2023-02-09T00:34:53.430Z,68.41
2023-02-09T00:40:15.711Z,68.98
2023-02-09T00:45:38.207Z,68.88
2023-02-09T00:51:00.434Z,68.64
2023-02-09T00:56:22.465Z,68.69
2023-02-09T01:01:47.412Z,68.86
2023-02-09T01:07:09.920Z,68.41
2023-02-09T01:12:31.896Z,67.79
2023-02-09T01:17:53.683Z,67.53
2023-02-09T01:23:15.804Z,67.04
2023-02-09T01:28:38.239Z,67.34
2023-02-09T01:34:02.292Z,67.32
2023-02-09T01:39:24.000Z,67.05
2023-02-09T01:44:45.530Z,66.78
2023-02-09T01:50:07.760Z,67.15
2023-02-09T01:55:33.253Z,66.85
2023-02-09T02:00:55.102Z,66.84
2023-02-09T02:06:18.066Z,67.13
2023-02-09T02:11:42.110Z,67.05
2023-02-09T02:17:12.564Z,67.06
2023-02-09T02:22:43.737Z,67.27
2023-02-09T02:28:33.505Z,67.17
2023-02-09T02:34:09.510Z,67.32
2023-02-09T02:39:41.357Z,68.13
2023-02-09T02:45:11.644Z,68.56
2023-02-09T02:50:33.497Z,69.46
2023-02-09T02:55:59.508Z,70.02
2023-02-09T03:01:24.995Z,70.11
2023-02-09T03:06:49.705Z,70.28
2023-02-09T03:12:39.435Z,70.33
2023-02-09T03:18:27.233Z,70.40
2023-02-09T03:24:05.742Z,70.14
2023-02-09T03:29:28.437Z,70.48
2023-02-09T03:34:52.824Z,69.52
2023-02-09T03:40:14.840Z,68.65
2023-02-09T03:45:38.613Z,67.97
2023-02-09T03:51:03.716Z,67.52
2023-02-09T03:56:25.647Z,67.45
2023-02-09T04:01:48.475Z,67.54
2023-02-09T04:07:10.301Z,67.54
2023-02-09T04:12:33.846Z,67.18
2023-02-09T04:17:55.865Z,66.71
2023-02-09T04:23:19.988Z,66.47
2023-02-09T04:28:42.877Z,67.18
2023-02-09T04:34:04.966Z,67.20
2023-02-09T04:39:27.129Z,67.33
2023-02-09T04:44:49.035Z,67.60
2023-02-09T04:50:12.768Z,67.69
2023-02-09T04:55:38.279Z,67.78
2023-02-09T05:01:02.809Z,67.45
2023-02-09T05:06:24.781Z,66.75
2023-02-09T05:11:46.707Z,66.55
2023-02-09T05:17:08.734Z,66.43
2023-02-09T05:22:30.903Z,66.50
2023-02-09T05:27:52.633Z,66.57
2023-02-09T05:33:18.136Z,66.67
2023-02-09T05:38:40.566Z,66.38
2023-02-09T05:44:03.799Z,66.01
2023-02-09T05:49:25.329Z,66.10
2023-02-09T05:54:48.464Z,66.07
2023-02-09T06:00:11.390Z,66.14
2023-02-09T06:05:36.042Z,65.88
2023-02-09T06:10:58.157Z,66.06
2023-02-09T06:16:20.284Z,65.43
2023-02-09T06:21:46.222Z,64.96
2023-02-09T06:27:08.416Z,64.46
2023-02-09T06:32:30.289Z,64.61
2023-02-09T06:37:52.229Z,64.58
2023-02-09T06:43:14.150Z,65.16
2023-02-09T06:48:37.389Z,65.37
2023-02-09T06:53:59.117Z,65.24
2023-02-09T06:59:21.046Z,64.93
2023-02-09T07:04:42.871Z,65.04
2023-02-09T07:10:06.641Z,64.67
2023-02-09T07:15:28.539Z,64.95
2023-02-09T07:20:57.604Z,65.33
2023-02-09T07:26:19.426Z,65.73
2023-02-09T07:31:41.545Z,65.77
2023-02-09T07:37:04.065Z,65.27
2023-02-09T07:42:26.111Z,65.00
2023-02-09T07:47:52.855Z,64.59
2023-02-09T07:53:14.982Z,64.64
2023-02-09T07:58:36.914Z,64.14
2023-02-09T08:03:59.370Z,64.23
2023-02-09T08:09:21.270Z,63.73
2023-02-09T08:14:48.604Z,63.21
2023-02-09T08:20:13.530Z,63.10
2023-02-09T08:25:36.497Z,63.08
2023-02-09T08:30:58.563Z,62.42
2023-02-09T08:36:21.001Z,61.87
2023-02-09T08:41:45.872Z,62.03
2023-02-09T08:47:13.043Z,61.55
2023-02-09T08:52:34.943Z,60.67
2023-02-09T08:57:56.826Z,60.70
2023-02-09T09:03:22.035Z,60.44
2023-02-09T09:08:44.584Z,59.90
2023-02-09T09:14:06.517Z,59.17
2023-02-09T09:19:29.301Z,58.10
2023-02-09T09:24:52.675Z,57.59
2023-02-09T09:30:14.606Z,56.99
2023-02-09T09:35:39.345Z,56.39
2023-02-09T09:41:01.666Z,56.70
2023-02-09T09:46:38.996Z,55.59
2023-02-09T09:52:08.856Z,55.25
2023-02-09T09:57:31.762Z,54.74
2023-02-09T10:02:59.092Z,54.39
2023-02-09T10:09:04.080Z,53.81
2023-02-09T10:14:28.208Z,53.25
2023-02-09T10:20:08.007Z,52.76
2023-02-09T10:25:39.861Z,52.32
2023-02-09T10:31:04.677Z,51.76
2023-02-09T10:36:38.311Z,51.26
2023-02-09T10:42:27.627Z,50.25
2023-02-09T10:48:05.371Z,50.24
2023-02-09T10:53:57.224Z,49.31
2023-02-09T10:59:21.652Z,49.00
2023-02-09T11:04:47.171Z,48.06
2023-02-09T11:10:12.887Z,47.83
2023-02-09T11:15:39.626Z,48.16
2023-02-09T11:21:19.789Z,47.85
2023-02-09T11:27:01.179Z,47.05
2023-02-09T11:32:29.437Z,46.25
2023-02-09T11:38:02.197Z,46.08
2023-02-09T11:43:31.365Z,45.53
2023-02-09T11:49:18.003Z,45.48
2023-02-09T11:54:42.509Z,44.87
2023-02-09T12:00:05.942Z,44.89
2023-02-09T12:05:27.802Z,44.54
2023-02-09T12:10:55.318Z,44.36
2023-02-09T12:16:27.071Z,44.53
2023-02-09T12:21:49.221Z,43.99
2023-02-09T12:27:27.892Z,44.34
2023-02-09T12:32:49.731Z,44.29
2023-02-09T12:38:17.875Z,43.98
2023-02-09T12:43:40.609Z,43.56
2023-02-09T12:49:11.373Z,43.62
2023-02-09T12:54:56.926Z,43.92
2023-02-09T13:00:19.015Z,43.91
2023-02-09T13:05:44.707Z,43.40
2023-02-09T13:11:13.824Z,43.31
2023-02-09T13:16:47.724Z,43.19
2023-02-09T13:22:28.329Z,42.54
2023-02-09T13:27:50.229Z,42.75
2023-02-09T13:33:28.101Z,42.48
2023-02-09T13:38:50.953Z,42.55
2023-02-09T13:44:30.321Z,42.67
2023-02-09T13:50:04.398Z,42.25
2023-02-09T13:55:27.256Z,41.78
2023-02-09T14:00:51.526Z,41.55
2023-02-09T14:06:18.159Z,41.91
2023-02-09T14:12:13.882Z,41.49
2023-02-09T14:17:35.761Z,41.59
2023-02-09T14:23:01.524Z,41.67
2023-02-09T14:28:25.113Z,41.95
2023-02-09T14:33:51.199Z,42.33
2023-02-09T14:39:17.268Z,42.11
2023-02-09T14:44:51.185Z,42.15
2023-02-09T14:50:19.186Z,42.47
2023-02-09T14:55:44.784Z,42.69
2023-02-09T15:01:09.485Z,42.95
2023-02-09T15:06:34.898Z,43.14
2023-02-09T15:12:06.084Z,43.36
2023-02-09T15:17:29.795Z,43.42
2023-02-09T15:22:56.186Z,43.68
2023-02-09T15:28:28.940Z,44.19
2023-02-09T15:33:51.104Z,44.49
2023-02-09T15:39:23.293Z,44.74
2023-02-09T15:45:13.141Z,44.74
2023-02-09T15:50:46.322Z,45.13
2023-02-09T15:56:10.245Z,45.53
2023-02-09T16:01:35.996Z,45.51
2023-02-09T16:06:57.916Z,45.83
2023-02-09T16:12:19.905Z,46.18
2023-02-09T16:17:44.467Z,46.82
2023-02-09T16:23:19.854Z,46.75
2023-02-09T16:28:42.391Z,47.37
2023-02-09T16:34:04.407Z,47.63
2023-02-09T16:39:26.536Z,47.85
2023-02-09T16:44:48.367Z,48.71
2023-02-09T16:50:32.964Z,48.58
2023-02-09T16:55:55.507Z,49.04
2023-02-09T17:01:20.718Z,49.36
2023-02-09T17:06:43.384Z,49.29
2023-02-09T17:12:05.161Z,49.43
2023-02-09T17:17:27.010Z,49.34
2023-02-09T17:22:51.521Z,49.51
2023-02-09T17:28:14.267Z,49.54
2023-02-09T17:33:36.557Z,49.61
2023-02-09T17:38:59.271Z,49.68
2023-02-09T17:44:45.191Z,49.54
2023-02-09T17:50:08.933Z,49.96
2023-02-09T17:55:31.951Z,49.57
2023-02-09T18:00:56.131Z,49.67
2023-02-09T18:06:20.336Z,49.91
2023-02-09T18:11:45.685Z,50.45
2023-02-09T18:17:07.574Z,50.18
2023-02-09T18:22:30.438Z,50.64
2023-02-09T18:27:53.799Z,50.57
2023-02-09T18:33:19.028Z,50.40
2023-02-09T18:38:41.852Z,50.52
2023-02-09T18:44:03.985Z,50.68
2023-02-09T18:49:27.096Z,50.76
2023-02-09T18:54:56.152Z,50.52
2023-02-09T19:00:20.686Z,50.68
2023-02-09T19:05:43.224Z,51.12
2023-02-09T19:11:07.063Z,51.33
2023-02-09T19:16:30.782Z,51.34
2023-02-09T19:21:56.629Z,52.11
2023-02-09T19:27:19.171Z,52.11
2023-02-09T19:32:42.005Z,52.14
2023-02-09T19:38:03.831Z,52.34
2023-02-09T19:43:26.067Z,52.10
2023-02-09T19:48:49.449Z,52.44
2023-02-09T19:54:11.869Z,52.31
2023-02-09T19:59:33.980Z,52.22
2023-02-09T20:04:55.959Z,52.28
2023-02-09T20:10:18.725Z,52.69
2023-02-09T20:15:42.692Z,52.70
2023-02-09T20:21:21.660Z,52.85
2023-02-09T20:26:46.095Z,52.75
2023-02-09T20:32:08.816Z,52.98
2023-02-09T20:37:34.762Z,53.09
2023-02-09T20:43:15.354Z,53.31
2023-02-09T20:48:40.096Z,53.33
2023-02-09T20:54:02.227Z,53.42
2023-02-09T20:59:25.542Z,53.35
2023-02-09T21:04:47.386Z,53.64
2023-02-09T21:10:10.425Z,53.48
2023-02-09T21:15:32.854Z,53.66
2023-02-09T21:20:54.785Z,53.70
2023-02-09T21:26:20.257Z,54.10
2023-02-09T21:31:42.590Z,54.15
2023-02-09T21:37:07.989Z,54.27
2023-02-09T21:42:31.448Z,53.94
2023-02-09T21:47:53.566Z,53.83
2023-02-09T21:53:15.381Z,53.93
2023-02-09T21:58:37.615Z,53.81
2023-02-09T22:04:01.281Z,53.84
2023-02-09T22:09:24.183Z,53.78
2023-02-09T22:14:46.408Z,53.57
2023-02-09T22:20:11.847Z,53.38
2023-02-09T22:25:42.534Z,53.24
2023-02-09T22:31:10.150Z,53.49
2023-02-09T22:36:34.493Z,53.51
2023-02-09T22:41:58.939Z,53.44
2023-02-09T22:47:23.679Z,53.36
2023-02-09T22:52:45.612Z,53.17
2023-02-09T22:58:07.437Z,53.59
2023-02-09T23:03:29.469Z,53.78
2023-02-09T23:08:55.632Z,53.95
2023-02-09T23:14:18.077Z,54.13
2023-02-09T23:19:40.458Z,54.42
2023-02-09T23:25:02.117Z,54.34
2023-02-09T23:30:24.234Z,54.64
2023-02-09T23:35:46.498Z,54.95
2023-02-09T23:41:10.818Z,55.04
2023-02-09T23:46:32.876Z,54.94
2023-02-09T23:51:54.762Z,55.09
2023-02-09T23:57:18.004Z,55.35
